LJLJEBCI

Guest
Details From LJLJ - Ljubljana
To EBCI - Brussels South - Charleroi
Flight Number -
Tags Generated
Created
Modified
Stats Distance 472 nm / 875 km
Max Altitude 0 ft / 0 m
Waypoints 4
Social Downloads 0
Likes 0
Share VATSIM

Download

Looking for another format? Having issues loading an existing format? Contact us
Advertisement - Login to hide

Notes

Generated

Route

LJLJ SUDEN GSY EBCI

ID Type Via Altitude Latitude Longitude Leg Dist Tot Dist Heading (true) Name
O LJLJ APT - 0 ft / 0 m 46.23249˚ 14.44039˚ - 0 nm - -
SUDEN FIX - 0 ft / 0 m 48.52917˚ 9.46222˚ 244 nm 244 nm 306° / 302° -
GSY VOR - 0 ft / 0 m 50.45389˚ 4.44139˚ 227 nm 472 nm 302° / 299° GOSLY VOR-DME
O EBCI APT - 0 ft / 0 m 50.45539˚ 4.43664˚ 0 nm 472 nm 296° / 296° -

Altitude Profile

Advertisement - Login to hide

Weather


0- 5 10 15 20 25 30 35+ Temperature / ° C

Clouds and Precipitation
Forecast for 2018-05-26 06:00 UTC. Updated 3 hours ago

Ground ~20,000 ft ~40,000 ft Winds

LJLJ

Details ICAO LJLJ (LJU)
Name LJUBLJANA
Region Slovenia
Timezone Europe/Ljubljana (UTC+2.0)
Stats Elevation 1,273 ft / 388 m (AMSL)
Location 46.223685° 14.457608°
Runways 1
Magnetic Variation 3.713° E

METAR

LJLJ 260800Z 36001KT 9999 FEW030 21/13 Q1022 NOSIG

Decode

TAF

TAF LJLJ 260800Z 2609/2709 12005KT 9999 FEW040 PROB40 TEMPO 2611/2618 SHRA SCT040TCU BKN055 PROB30 TEMPO 2613/2617 FEW050CB BKN060 BECMG 2620/2622 29003KT PROB40 TEMPO 2620/2706 7000 BKN040

Decode

Departure Runways

ID Width Length Bearing (true) Bearing (mag) Surface Threshold Offset Overrun Length
13 148 ft / 45 m 10,811 ft / 3,295 m 126.47° 122.76° Asphalt 0 ft / 0 m 0 ft / 0 m
31 148 ft / 45 m 10,811 ft / 3,295 m 306.49° 302.78° Asphalt 0 ft / 0 m 0 ft / 0 m

EBCI

Details ICAO EBCI (CRL)
Name Brussels South - Charleroi
Region Belgium
Timezone Europe/Brussels (UTC+2.0)
Stats Elevation 614 ft / 187 m (AMSL)
Location 50.459947° 4.453125°
Runways 1
Magnetic Variation 1.194° E

METAR

EBCI 260750Z 11005KT 040V170 CAVOK 22/15 Q1019 NOSIG

Decode

TAF

TAF EBCI 260510Z 2606/2712 08004KT 3000 BR NSC BECMG 2606/2607 9999 NSW

Decode

Destination Runways

ID Width Length Bearing (true) Bearing (mag) Surface Threshold Offset Overrun Length
07 148 ft / 45 m 8,374 ft / 2,552 m 65.53° 64.34° Asphalt 1,476 ft / 450 m 0 ft / 0 m
25 148 ft / 45 m 8,374 ft / 2,552 m 245.55° 244.36° Asphalt 0 ft / 0 m 0 ft / 0 m

Approach Navaids

Runway Type Ident Frequency Range Bearing (true) Bearing (mag) Slope Elevation
25 Localiser IGC 110.90 MHz 18 nm / 33 km 245.54° 244.35° - 614 ft / 187 m (AMSL)
25 Glidescope IGC 110.90 MHz 10 nm / 19 km 245.54° 244.35° 3.00° 614 ft / 187 m (AMSL)

Popular Alternatives